Time;durP1;ratioP1;P1;durP2;ratioP2;P2;SDS_P1;SDS_P2;PMS_P1;PMS_P2;Temp;Humidity;BMP_temperature;BMP_pressure;BME280_temperature;BME280_humidity;BME280_pressure;Samples;Min_cycle;Max_cycle;Signal;HPM_P1;HPM_P2
2022/09/20 00:01:01;;;;;;;;;;;;;;;11.81;59.83;99676.47;4367191;32;19974;-90
2022/09/20 00:03:26;;;;;;;;;;;;;;;11.65;59.82;99678.81;4367605;32;20017;-90
2022/09/20 00:05:52;;;;;;;;;;;;;;;11.75;59.83;99680.16;4366463;32;32987;-88
2022/09/20 00:08:17;;;;;;;;;;;;;;;11.67;59.81;99677.84;4367903;32;21159;-89
2022/09/20 00:10:42;;;;;;;;;;;;;;;11.72;59.82;99674.22;4382651;32;20244;-89
2022/09/20 00:13:08;;;;;;;;;;;;;;;11.63;59.82;99678.88;4387599;32;19997;-89
2022/09/20 00:15:33;;;;;;;;;;;;;;;11.63;59.82;99667.59;4366776;32;20036;-88
2022/09/20 00:17:58;;;;;;;;;;;;;;;11.58;59.81;99672.94;4380100;32;20061;-89
2022/09/20 00:20:24;;;;;;;;;;;;;;;11.68;59.82;99682.16;4379724;32;20010;-88
2022/09/20 00:22:49;;;;;;;;;;;;;;;11.77;59.83;99687.91;4378788;32;19978;-89
2022/09/20 00:25:15;;;;;;;;;;;;;;;11.73;59.82;99675.91;4379736;32;20034;-89
2022/09/20 00:27:40;;;;;;;;;;;;;;;11.77;59.83;99677.47;4366944;32;20342;-89
2022/09/20 00:30:05;;;;;;;;;;;;;;;11.66;59.82;99675.28;4378908;32;26874;-89
2022/09/20 00:32:31;;;;;;;;;;;;;;;11.74;59.83;99675.00;4379573;32;19986;-89
2022/09/20 00:35:11;;;;;;;;;;;;;;;11.59;59.81;99679.91;4366652;32;20590;-88
2022/09/20 00:37:37;;;;;;;;;;;;;;;11.51;59.81;99675.84;4381249;32;19958;-90
2022/09/20 00:40:03;;;;;;;;;;;;;;;11.50;59.81;99671.53;4367091;32;19983;-89
2022/09/20 00:42:28;;;;;;;;;;;;;;;11.54;59.82;99660.09;4367086;32;20030;-89
2022/09/20 00:44:57;;;;;;;;;;;;;;;11.54;59.82;99673.13;4367072;32;20013;-89
2022/09/20 00:47:48;;;;;;;;;;;;;;;11.62;59.82;99676.31;4393022;32;20013;-89
2022/09/20 00:50:13;;;;;;;;;;;;;;;11.53;59.82;99671.44;4369870;32;20044;-88
2022/09/20 00:52:39;;;;;;;;;;;;;;;11.47;59.82;99667.31;4379606;32;19982;-88
2022/09/20 00:55:05;;;;;;;;;;;;;;;11.58;59.81;99670.34;4366868;32;19990;-88
2022/09/20 00:57:34;;;;;;;;;;;;;;;11.52;59.81;99669.72;4366594;32;20012;-89
2022/09/20 00:59:59;;;;;;;;;;;;;;;11.56;59.82;99671.31;4367339;32;20026;-89
2022/09/20 01:02:25;;;;;;;;;;;;;;;11.54;59.82;99678.34;4366864;32;20257;-88
2022/09/20 01:04:50;;;;;;;;;;;;;;;11.56;59.81;99679.97;4366691;32;20523;-88
2022/09/20 01:07:16;;;;;;;;;;;;;;;11.51;59.81;99674.09;4378564;32;32509;-89
2022/09/20 01:09:41;;;;;;;;;;;;;;;11.37;59.81;99687.66;4366502;32;20020;-89
2022/09/20 01:12:08;;;;;;;;;;;;;;;11.07;59.79;99691.31;4392889;32;25819;-89
2022/09/20 01:14:34;;;;;;;;;;;;;;;11.05;59.79;99683.56;4366678;32;20025;-88
2022/09/20 01:17:00;;;;;;;;;;;;;;;11.07;59.79;99692.16;4366322;32;25650;-87
2022/09/20 01:19:27;;;;;;;;;;;;;;;11.15;59.79;99685.88;4366501;32;19983;-87
2022/09/20 01:21:52;;;;;;;;;;;;;;;11.17;59.80;99695.31;4379734;32;19982;-87
2022/09/20 01:24:21;;;;;;;;;;;;;;;11.28;59.80;99687.97;4378576;32;30768;-87
2022/09/20 01:26:57;;;;;;;;;;;;;;;11.16;59.80;99683.19;4366809;32;20017;-89
2022/09/20 01:29:23;;;;;;;;;;;;;;;11.29;59.80;99689.66;4366757;32;19975;-88
2022/09/20 01:31:49;;;;;;;;;;;;;;;11.22;59.80;99689.94;4378837;32;20510;-87
2022/09/20 01:34:20;;;;;;;;;;;;;;;11.20;59.79;99699.56;4366163;32;20003;-87
2022/09/20 01:36:49;;;;;;;;;;;;;;;11.35;59.80;99689.44;4366518;32;19998;-89
2022/09/20 01:39:19;;;;;;;;;;;;;;;11.22;59.79;99687.34;4378717;32;19999;-88
2022/09/20 01:41:49;;;;;;;;;;;;;;;11.16;59.80;99695.38;4392861;32;19989;-88
2022/09/20 01:44:23;;;;;;;;;;;;;;;11.22;59.79;99689.94;4366484;32;19994;-87
2022/09/20 01:46:53;;;;;;;;;;;;;;;11.19;59.79;99698.72;4392818;32;20274;-88
2022/09/20 01:49:24;;;;;;;;;;;;;;;11.29;59.79;99697.47;4378912;32;20336;-88
2022/09/20 01:51:52;;;;;;;;;;;;;;;11.46;59.81;99701.25;4378753;32;19986;-90
2022/09/20 01:54:22;;;;;;;;;;;;;;;11.40;59.81;99699.72;4378802;32;19994;-89
2022/09/20 01:57:11;;;;;;;;;;;;;;;11.49;59.81;99693.31;4366732;32;20050;-88
2022/09/20 01:59:55;;;;;;;;;;;;;;;11.49;59.81;99699.38;4378895;32;19993;-88
2022/09/20 02:02:29;;;;;;;;;;;;;;;11.54;59.82;99700.03;4379200;32;19990;-88
2022/09/20 02:05:03;;;;;;;;;;;;;;;11.71;59.82;99704.66;4379117;32;19982;-89
2022/09/20 02:07:40;;;;;;;;;;;;;;;11.88;59.83;99709.28;4379286;32;20012;-88
2022/09/20 02:10:09;;;;;;;;;;;;;;;11.96;59.84;99697.63;4392681;32;20497;-89
2022/09/20 02:12:53;;;;;;;;;;;;;;;11.89;59.83;99703.16;4366657;32;20024;-88
2022/09/20 02:15:40;;;;;;;;;;;;;;;11.98;59.84;99710.59;4396420;32;20033;-89
2022/09/20 02:18:08;;;;;;;;;;;;;;;11.90;59.83;99717.88;4380160;32;20054;-90
2022/09/20 02:20:53;;;;;;;;;;;;;;;12.05;59.84;99722.50;4393151;32;20002;-89
2022/09/20 02:23:21;;;;;;;;;;;;;;;12.14;59.85;99721.31;4379025;32;20001;-90
2022/09/20 02:25:56;;;;;;;;;;;;;;;12.14;59.85;99721.31;4366541;32;20020;-88
2022/09/20 02:28:39;;;;;;;;;;;;;;;12.22;59.85;99722.69;4366203;32;20028;-89
2022/09/20 02:31:17;;;;;;;;;;;;;;;12.21;59.84;99722.75;4378936;32;19974;-88
2022/09/20 02:34:11;;;;;;;;;;;;;;;12.09;59.85;99720.66;4392666;32;19983;-88
2022/09/20 02:36:42;;;;;;;;;;;;;;;12.07;59.84;99725.94;4337554;32;19995;-88
2022/09/20 02:39:43;;;;;;;;;;;;;;;12.03;59.84;99723.47;4366177;32;20038;-88
2022/09/20 02:42:23;;;;;;;;;;;;;;;11.63;59.82;99715.38;4330416;33;20046;-88
2022/09/20 02:45:07;;;;;;;;;;;;;;;11.62;59.82;99715.44;4371453;32;20020;-88
2022/09/20 02:47:37;;;;;;;;;;;;;;;11.50;59.81;99715.84;4378243;32;20005;-88
2022/09/20 02:50:21;;;;;;;;;;;;;;;11.59;59.81;99723.34;4378175;32;20046;-88
2022/09/20 02:52:59;;;;;;;;;;;;;;;11.33;59.81;99721.66;4392590;32;20386;-89
2022/09/20 02:55:41;;;;;;;;;;;;;;;11.50;59.81;99724.53;4378829;32;20264;-88
2022/09/20 02:58:15;;;;;;;;;;;;;;;11.53;59.82;99728.78;4366203;32;20102;-89
2022/09/20 03:00:45;;;;;;;;;;;;;;;11.54;59.82;99730.47;4391885;32;20005;-89
2022/09/20 03:03:22;;;;;;;;;;;;;;;11.40;59.81;99735.34;4378622;32;19986;-90
2022/09/20 03:05:57;;;;;;;;;;;;;;;11.37;59.80;99744.13;4378458;32;20020;-88
2022/09/20 03:08:28;;;;;;;;;;;;;;;11.46;59.81;99745.56;4365716;32;20032;-89
2022/09/20 03:11:12;;;;;;;;;;;;;;;11.47;59.82;99748.09;4379035;32;20363;-89
2022/09/20 03:13:40;;;;;;;;;;;;;;;11.54;59.82;99751.34;4392323;32;19979;-88
2022/09/20 03:16:06;;;;;;;;;;;;;;;11.64;59.82;99753.56;4378740;32;20001;-89
2022/09/20 03:18:43;;;;;;;;;;;;;;;11.72;59.83;99745.47;4378931;32;20038;-88
2022/09/20 03:21:10;;;;;;;;;;;;;;;11.82;59.83;99751.19;4365652;32;20017;-89
2022/09/20 03:23:54;;;;;;;;;;;;;;;12.02;59.84;99738.28;4367816;32;19979;-89
2022/09/20 03:26:30;;;;;;;;;;;;;;;12.04;59.84;99746.03;4383227;32;19984;-90
2022/09/20 03:28:58;;;;;;;;;;;;;;;11.98;59.84;99742.75;4378400;32;19991;-89
2022/09/20 03:31:32;;;;;;;;;;;;;;;12.23;59.85;99737.44;4378787;32;20045;-88
2022/09/20 03:34:10;;;;;;;;;;;;;;;12.06;59.85;99733.78;4377849;32;19982;-88
2022/09/20 03:36:38;;;;;;;;;;;;;;;12.05;59.84;99738.16;4378378;32;20046;-88
2022/09/20 03:39:06;;;;;;;;;;;;;;;12.22;59.86;99730.53;4366842;32;20002;-88
2022/09/20 03:41:38;;;;;;;;;;;;;;;12.29;59.86;99736.34;4380959;32;20010;-88
2022/09/20 03:44:09;;;;;;;;;;;;;;;12.41;59.86;99741.09;4366109;32;19992;-88
2022/09/20 03:46:39;;;;;;;;;;;;;;;12.03;59.84;99746.94;4360137;32;19989;-87
2022/09/20 03:49:05;;;;;;;;;;;;;;;12.03;59.84;99741.72;4387219;32;19983;-87
2022/09/20 03:51:30;;;;;;;;;;;;;;;12.00;59.84;99742.69;4391112;32;20024;-88
2022/09/20 03:54:07;;;;;;;;;;;;;;;11.96;59.83;99739.34;4391197;32;20348;-88
2022/09/20 03:56:32;;;;;;;;;;;;;;;11.83;59.83;99738.12;4391548;32;20033;-87
2022/09/20 03:59:04;;;;;;;;;;;;;;;11.69;59.82;99741.22;4393662;32;20284;-88
2022/09/20 04:01:36;;;;;;;;;;;;;;;11.42;59.81;99736.16;4393732;32;20042;-89
2022/09/20 04:04:20;;;;;;;;;;;;;;;11.52;59.81;99733.13;4367079;32;20628;-88
2022/09/20 04:06:46;;;;;;;;;;;;;;;11.36;59.80;99738.06;4379685;32;19978;-88
2022/09/20 04:09:29;;;;;;;;;;;;;;;11.13;59.79;99729.34;4393469;32;20343;-88
2022/09/20 04:12:13;;;;;;;;;;;;;;;11.23;59.80;99731.56;4379854;32;20021;-89
2022/09/20 04:14:42;;;;;;;;;;;;;;;11.27;59.80;99743.59;4393971;32;19986;-89
2022/09/20 04:17:14;;;;;;;;;;;;;;;11.13;59.79;99740.63;4379926;32;19974;-89
2022/09/20 04:19:44;;;;;;;;;;;;;;;11.14;59.79;99747.53;4367648;32;20002;-89
2022/09/20 04:22:09;;;;;;;;;;;;;;;10.74;59.77;99761.03;4379147;32;20002;-88
2022/09/20 04:24:49;;;;;;;;;;;;;;;11.02;59.79;99763.56;4379836;32;20013;-90
2022/09/20 04:27:16;;;;;;;;;;;;;;;10.68;59.77;99759.47;4367846;32;20415;-90
2022/09/20 04:29:43;;;;;;;;;;;;;;;10.62;59.76;99761.41;4379936;32;19998;-89
2022/09/20 04:32:17;;;;;;;;;;;;;;;10.66;59.77;99758.69;4379126;32;19987;-89
2022/09/20 04:37:33;;;;;;;;;;;;;;;10.51;59.76;99759.16;4381637;32;20505;-89
2022/09/20 04:40:02;;;;;;;;;;;;;;;10.40;59.75;99754.28;4379519;32;20015;-88
2022/09/20 04:42:33;;;;;;;;;;;;;;;10.40;59.75;99756.03;4367119;32;20020;-88
2022/09/20 04:45:10;;;;;;;;;;;;;;;10.34;59.75;99753.62;4393343;32;20033;-88
2022/09/20 04:47:36;;;;;;;;;;;;;;;10.45;59.75;99752.41;4380051;32;20066;-89
2022/09/20 04:50:05;;;;;;;;;;;;;;;10.31;59.74;99751.13;4393270;32;19995;-91
2022/09/20 04:52:56;;;;;;;;;;;;;;;10.37;59.75;99754.38;4393412;32;20085;-91
2022/09/20 04:55:43;;;;;;;;;;;;;;;10.51;59.76;99751.34;4355929;32;20394;-89
2022/09/20 04:58:27;;;;;;;;;;;;;;;10.47;59.76;99757.56;4379566;32;19974;-90
2022/09/20 05:01:01;;;;;;;;;;;;;;;10.61;59.76;99762.31;4393127;32;20014;-89
2022/09/20 05:03:35;;;;;;;;;;;;;;;10.47;59.76;99765.37;4394111;32;19969;-89
2022/09/20 05:06:19;;;;;;;;;;;;;;;10.69;59.76;99769.00;4394790;32;19993;-88
2022/09/20 05:08:47;;;;;;;;;;;;;;;10.73;59.77;99767.13;4394209;32;20252;-88
2022/09/20 05:11:13;;;;;;;;;;;;;;;10.85;59.78;99764.13;4393710;32;20001;-89
2022/09/20 05:13:57;;;;;;;;;;;;;;;10.83;59.78;99759.88;4393186;32;20232;-89
2022/09/20 05:16:22;;;;;;;;;;;;;;;11.11;59.79;99772.81;4379869;32;20016;-87
2022/09/20 05:18:55;;;;;;;;;;;;;;;11.02;59.79;99774.84;4379376;32;19990;-88
2022/09/20 05:21:21;;;;;;;;;;;;;;;11.01;59.79;99775.75;4379546;32;19999;-87
2022/09/20 05:23:56;;;;;;;;;;;;;;;11.31;59.80;99773.00;4379521;32;20389;-88
2022/09/20 05:26:27;;;;;;;;;;;;;;;11.21;59.79;99779.44;4379648;32;19974;-88
2022/09/20 05:29:11;;;;;;;;;;;;;;;11.20;59.79;99791.62;4366816;32;20028;-89
2022/09/20 05:31:41;;;;;;;;;;;;;;;11.29;59.79;99788.69;4393517;32;19993;-87
2022/09/20 05:34:19;;;;;;;;;;;;;;;11.33;59.80;99787.66;4378825;32;20056;-88
2022/09/20 05:37:05;;;;;;;;;;;;;;;11.42;59.81;99801.31;4379622;32;19979;-87
2022/09/20 05:39:37;;;;;;;;;;;;;;;11.42;59.80;99789.13;4393090;32;20342;-87
2022/09/20 05:42:19;;;;;;;;;;;;;;;11.66;59.82;99795.22;4379108;32;20013;-88
2022/09/20 05:45:03;;;;;;;;;;;;;;;11.48;59.81;99803.69;4366923;32;20356;-88
2022/09/20 05:47:28;;;;;;;;;;;;;;;11.33;59.80;99798.09;4378954;32;19975;-86
2022/09/20 05:50:14;;;;;;;;;;;;;;;11.52;59.81;99800.91;4392454;32;19985;-88
2022/09/20 05:52:51;;;;;;;;;;;;;;;11.61;59.82;99803.22;4379049;32;19983;-88
2022/09/20 05:55:35;;;;;;;;;;;;;;;11.52;59.81;99790.50;4393123;32;19983;-88
2022/09/20 05:58:00;;;;;;;;;;;;;;;11.67;59.82;99796.94;4393044;32;20057;-87
2022/09/20 06:00:52;;;;;;;;;;;;;;;11.71;59.83;99789.84;4379144;32;20336;-89
2022/09/20 06:03:22;;;;;;;;;;;;;;;11.77;59.83;99797.44;4375938;32;19994;-88
2022/09/20 06:05:47;;;;;;;;;;;;;;;11.81;59.83;99801.66;4379197;32;20009;-86
2022/09/20 06:08:15;;;;;;;;;;;;;;;11.90;59.84;99799.59;4378774;32;19978;-87
2022/09/20 06:10:46;;;;;;;;;;;;;;;12.08;59.85;99802.44;4378502;32;20380;-88
2022/09/20 06:13:14;;;;;;;;;;;;;;;12.14;59.85;99802.19;4392433;32;20032;-89
2022/09/20 06:15:51;;;;;;;;;;;;;;;12.28;59.85;99799.91;4378305;32;20336;-88
2022/09/20 06:18:25;;;;;;;;;;;;;;;12.41;59.86;99801.16;4364943;32;19996;-87
2022/09/20 06:20:51;;;;;;;;;;;;;;;12.31;59.86;99807.62;4377018;32;19997;-89
2022/09/20 06:23:17;;;;;;;;;;;;;;;12.64;59.87;99804.63;4392764;32;19983;-88
2022/09/20 06:25:48;;;;;;;;;;;;;;;12.75;59.88;99798.03;4366526;32;20038;-88
2022/09/20 06:28:17;;;;;;;;;;;;;;;13.00;59.90;99807.50;4393001;32;19971;-88
2022/09/20 06:30:46;;;;;;;;;;;;;;;13.15;59.90;99801.66;4375901;32;19987;-88
2022/09/20 06:33:13;;;;;;;;;;;;;;;13.18;59.90;99805.00;4379848;32;19986;-89
2022/09/20 06:35:40;;;;;;;;;;;;;;;13.42;59.92;99807.50;4379580;32;19990;-89
2022/09/20 06:43:35;;;;;;;;;;;;;;;13.77;59.93;99795.53;4381159;32;20008;-89
2022/09/20 06:46:00;;;;;;;;;;;;;;;13.99;59.95;99795.44;4378770;32;20003;-89
2022/09/20 06:48:26;;;;;;;;;;;;;;;14.01;59.94;99796.19;4378301;32;30152;-88
2022/09/20 06:50:51;;;;;;;;;;;;;;;13.88;59.94;99795.03;4391899;32;20001;-88
2022/09/20 06:53:17;;;;;;;;;;;;;;;14.00;59.94;99799.75;4378738;32;19982;-87
2022/09/20 06:55:43;;;;;;;;;;;;;;;13.93;59.94;99796.53;4378737;32;20010;-88
2022/09/20 06:58:08;;;;;;;;;;;;;;;13.90;59.94;99791.44;4366276;32;20005;-89
2022/09/20 07:00:34;;;;;;;;;;;;;;;13.88;59.95;99803.75;4377888;32;34029;-88
2022/09/20 07:02:59;;;;;;;;;;;;;;;13.63;59.93;99805.75;4378475;32;20018;-87
2022/09/20 07:05:25;;;;;;;;;;;;;;;13.51;59.92;99804.53;4376942;32;27361;-86
2022/09/20 07:07:54;;;;;;;;;;;;;;;13.41;59.91;99811.03;4377851;32;19974;-87
2022/09/20 07:10:20;;;;;;;;;;;;;;;13.34;59.90;99810.47;4377579;32;20332;-88
2022/09/20 07:12:45;;;;;;;;;;;;;;;13.51;59.92;99814.97;4377557;32;20049;-86
2022/09/20 07:15:11;;;;;;;;;;;;;;;13.43;59.92;99817.06;4377549;32;20383;-88
2022/09/20 07:17:36;;;;;;;;;;;;;;;13.39;59.91;99815.50;4364994;32;20014;-88
2022/09/20 07:20:01;;;;;;;;;;;;;;;13.37;59.92;99815.56;4376445;32;35705;-87
2022/09/20 07:22:26;;;;;;;;;;;;;;;13.53;59.92;99815.75;4377249;32;20133;-87
2022/09/20 07:24:51;;;;;;;;;;;;;;;13.36;59.91;99823.47;4377242;32;20054;-89
2022/09/20 07:27:17;;;;;;;;;;;;;;;13.36;59.91;99821.69;4390593;32;25175;-87
2022/09/20 07:29:42;;;;;;;;;;;;;;;13.37;59.91;99819.94;4377518;32;20011;-87
2022/09/20 07:32:07;;;;;;;;;;;;;;;13.49;59.93;99827.28;4378535;32;20330;-86
2022/09/20 07:34:32;;;;;;;;;;;;;;;13.56;59.92;99833.09;4379404;32;19983;-86
2022/09/20 07:36:58;;;;;;;;;;;;;;;13.72;59.92;99824.53;4366540;32;20280;-86
2022/09/20 07:39:24;;;;;;;;;;;;;;;13.64;59.94;99826.59;4366347;32;20017;-87
2022/09/20 07:41:50;;;;;;;;;;;;;;;13.73;59.93;99834.06;4366792;32;20030;-87
2022/09/20 07:44:23;;;;;;;;;;;;;;;13.82;59.94;99835.41;4379217;32;20004;-87
2022/09/20 07:46:52;;;;;;;;;;;;;;;13.91;59.95;99835.00;4367935;32;19983;-86
2022/09/20 07:49:17;;;;;;;;;;;;;;;14.15;59.96;99830.44;4379170;32;19989;-86
2022/09/20 07:51:42;;;;;;;;;;;;;;;14.10;59.96;99835.88;4392381;32;19982;-86
2022/09/20 07:54:08;;;;;;;;;;;;;;;14.11;59.96;99832.34;4365917;32;19982;-85
2022/09/20 07:56:33;;;;;;;;;;;;;;;13.88;59.94;99832.53;4366687;32;20365;-87
2022/09/20 07:58:58;;;;;;;;;;;;;;;14.11;59.95;99836.72;4367531;32;20022;-86
2022/09/20 08:01:24;;;;;;;;;;;;;;;14.29;59.96;99835.91;4367090;32;20017;-86
2022/09/20 08:03:50;;;;;;;;;;;;;;;14.43;59.98;99838.78;4380225;32;20034;-86
2022/09/20 08:06:17;;;;;;;;;;;;;;;14.70;59.98;99831.41;4379978;32;19979;-85
2022/09/20 08:08:42;;;;;;;;;;;;;;;14.90;60.00;99832.19;4379793;32;19997;-88
2022/09/20 08:11:08;;;;;;;;;;;;;;;14.89;59.99;99833.09;4379640;32;20026;-86
2022/09/20 08:13:37;;;;;;;;;;;;;;;15.04;60.01;99838.47;4379066;32;20433;-87
2022/09/20 08:16:03;;;;;;;;;;;;;;;15.04;60.00;99829.75;4393602;32;20089;-88
2022/09/20 08:18:28;;;;;;;;;;;;;;;15.24;60.01;99834.88;4367403;32;20002;-87
2022/09/20 08:20:54;;;;;;;;;;;;;;;15.30;60.02;99833.72;4392911;32;29907;-87
2022/09/20 08:23:19;;;;;;;;;;;;;;;15.13;60.01;99838.94;4379974;32;20048;-87
2022/09/20 08:25:46;;;;;;;;;;;;;;;15.05;60.01;99837.53;4367292;32;19987;-87
2022/09/20 08:28:11;;;;;;;;;;;;;;;14.89;59.99;99826.09;4379986;32;20005;-86
2022/09/20 08:30:36;;;;;;;;;;;;;;;15.19;60.01;99834.25;4369372;32;20244;-87
2022/09/20 08:33:02;;;;;;;;;;;;;;;15.21;60.01;99836.81;4379126;32;30680;-86
2022/09/20 08:35:28;;;;;;;;;;;;;;;15.33;60.02;99829.16;4366919;32;20038;-87
2022/09/20 08:37:54;;;;;;;;;;;;;;;15.36;60.02;99821.13;4379598;32;20342;-86
2022/09/20 08:40:20;;;;;;;;;;;;;;;15.45;60.02;99830.31;4366970;32;20008;-87
2022/09/20 08:42:45;;;;;;;;;;;;;;;15.58;60.03;99827.91;4378970;32;19990;-87
2022/09/20 08:45:15;;;;;;;;;;;;;;;15.54;60.02;99835.09;4379016;32;20560;-87
2022/09/20 08:47:47;;;;;;;;;;;;;;;15.68;60.04;99838.84;4379387;32;19993;-88
2022/09/20 08:50:15;;;;;;;;;;;;;;;15.74;60.04;99838.50;4379642;32;20013;-88
2022/09/20 08:52:43;;;;;;;;;;;;;;;15.63;60.04;99846.94;4380042;32;20331;-87
2022/09/20 08:55:39;;;;;;;;;;;;;;;15.75;60.04;99854.19;4379392;32;20038;-87
2022/09/20 08:58:04;;;;;;;;;;;;;;;15.63;60.04;99850.41;4378891;32;20016;-86
2022/09/20 09:00:30;;;;;;;;;;;;;;;15.84;60.04;99853.69;4366502;32;24898;-88
2022/09/20 09:02:57;;;;;;;;;;;;;;;16.17;60.06;99847.59;4367143;32;19994;-89
2022/09/20 09:05:31;;;;;;;;;;;;;;;16.30;60.06;99840.75;4379517;32;19978;-87
2022/09/20 09:07:59;;;;;;;;;;;;;;;16.26;60.07;99836.59;4379537;32;20017;-88
2022/09/20 09:10:25;;;;;;;;;;;;;;;15.93;60.04;99841.87;4380923;32;19990;-89
2022/09/20 09:12:51;;;;;;;;;;;;;;;15.94;60.04;99840.94;4367692;32;20271;-86
2022/09/20 09:15:24;;;;;;;;;;;;;;;15.99;60.05;99841.53;4364104;32;19974;-86
2022/09/20 09:17:49;;;;;;;;;;;;;;;16.07;60.05;99834.09;4366617;32;19974;-86
2022/09/20 09:20:17;;;;;;;;;;;;;;;16.05;60.06;99841.22;4391449;32;21546;-86
2022/09/20 09:22:43;;;;;;;;;;;;;;;16.09;60.06;99832.28;4392067;32;20042;-88
2022/09/20 09:25:11;;;;;;;;;;;;;;;16.28;60.07;99834.72;4392776;32;20137;-87
2022/09/20 09:27:48;;;;;;;;;;;;;;;16.14;60.06;99829.41;4378989;32;20442;-86
2022/09/20 09:30:20;;;;;;;;;;;;;;;16.12;60.06;99829.47;4378450;32;20008;-86
2022/09/20 09:32:45;;;;;;;;;;;;;;;16.02;60.06;99830.03;4377512;32;20340;-85
2022/09/20 09:35:24;;;;;;;;;;;;;;;16.05;60.05;99835.13;4366064;32;20018;-87
2022/09/20 09:37:53;;;;;;;;;;;;;;;15.93;60.05;99836.62;4366691;32;20326;-86
2022/09/20 09:40:18;;;;;;;;;;;;;;;16.00;60.05;99827.50;4366695;32;20045;-87
2022/09/20 09:42:54;;;;;;;;;;;;;;;15.90;60.05;99839.41;4378835;32;20229;-86
2022/09/20 09:45:26;;;;;;;;;;;;;;;15.86;60.04;99833.47;4379041;32;20731;-86
2022/09/20 09:47:51;;;;;;;;;;;;;;;16.16;60.07;99833.63;4379519;32;20001;-86
2022/09/20 09:50:21;;;;;;;;;;;;;;;16.22;60.06;99840.31;4379088;32;20038;-86
2022/09/20 09:53:13;;;;;;;;;;;;;;;16.27;60.07;99831.25;4366430;32;20009;-86
2022/09/20 09:55:52;;;;;;;;;;;;;;;16.54;60.08;99828.06;4375136;32;19979;-86
2022/09/20 09:58:21;;;;;;;;;;;;;;;16.61;60.09;99834.69;4378853;32;19989;-86
2022/09/20 10:00:46;;;;;;;;;;;;;;;16.63;60.09;99824.94;4378861;32;19998;-86
2022/09/20 10:03:16;;;;;;;;;;;;;;;16.83;60.10;99818.59;4366313;32;20048;-87
2022/09/20 10:05:55;;;;;;;;;;;;;;;16.76;60.09;99825.13;4366482;32;19970;-87
2022/09/20 10:08:27;;;;;;;;;;;;;;;17.11;60.12;99812.59;4378798;32;20017;-85
2022/09/20 10:10:52;;;;;;;;;;;;;;;17.19;60.12;99818.25;4392847;32;20033;-87
2022/09/20 10:13:21;;;;;;;;;;;;;;;17.20;60.12;99822.59;4378841;32;20006;-87
2022/09/20 10:15:59;;;;;;;;;;;;;;;17.29;60.12;99819.44;4378751;32;20318;-86
2022/09/20 10:18:44;;;;;;;;;;;;;;;16.96;60.11;99821.34;4378967;32;19970;-87
2022/09/20 10:21:37;;;;;;;;;;;;;;;16.98;60.11;99822.12;4378396;32;20426;-87
2022/09/20 10:24:09;;;;;;;;;;;;;;;16.81;60.10;99831.84;4376401;32;20024;-86
2022/09/20 10:26:53;;;;;;;;;;;;;;;17.13;60.11;99826.50;4392636;32;19985;-87
2022/09/20 10:29:25;;;;;;;;;;;;;;;17.27;60.12;99828.31;4392889;32;20025;-88
2022/09/20 10:32:04;;;;;;;;;;;;;;;17.54;60.14;99815.34;4378661;32;20354;-86
2022/09/20 10:34:36;;;;;;;;;;;;;;;17.67;60.15;99811.03;4366224;32;20001;-87
2022/09/20 10:37:01;;;;;;;;;;;;;;;17.56;60.15;99808.22;4379170;32;19983;-87
2022/09/20 10:39:33;;;;;;;;;;;;;;;17.52;60.13;99801.44;4366154;32;19994;-86
2022/09/20 10:45:18;;;;;;;;;;;;;;;18.14;60.17;99802.87;4392671;32;20036;-87
2022/09/20 10:48:06;;;;;;;;;;;;;;;18.47;60.19;99792.03;4378640;32;19991;-87
2022/09/20 10:50:42;;;;;;;;;;;;;;;18.46;60.18;99800.03;4381385;32;20037;-86
2022/09/20 10:53:37;;;;;;;;;;;;;;;18.61;60.19;99794.63;4382700;32;19978;-86
2022/09/20 10:56:15;;;;;;;;;;;;;;;18.53;60.18;99798.69;4367914;32;20012;-86
2022/09/20 10:58:45;;;;;;;;;;;;;;;18.08;60.17;99803.28;4395237;32;19987;-88
2022/09/20 11:01:10;;;;;;;;;;;;;;;17.98;60.16;99813.56;4367561;32;20268;-87
2022/09/20 11:03:42;;;;;;;;;;;;;;;17.74;60.15;99815.00;4392512;32;20114;-88
2022/09/20 11:06:25;;;;;;;;;;;;;;;17.42;60.13;99817.75;4391969;32;19990;-88
2022/09/20 11:08:53;;;;;;;;;;;;;;;17.36;60.13;99820.75;4392339;32;19975;-88
2022/09/20 11:11:24;;;;;;;;;;;;;;;16.90;60.10;99827.81;4378525;32;20355;-87
2022/09/20 11:14:03;;;;;;;;;;;;;;;17.07;60.11;99832.13;4365854;32;20008;-86
2022/09/20 11:16:32;;;;;;;;;;;;;;;17.17;60.13;99826.25;4378705;32;20073;-88
2022/09/20 11:18:59;;;;;;;;;;;;;;;17.21;60.12;99821.66;4392266;32;19979;-87
2022/09/20 11:21:36;;;;;;;;;;;;;;;17.34;60.13;99819.16;4392301;32;20304;-87
2022/09/20 11:24:04;;;;;;;;;;;;;;;17.59;60.14;99813.28;4365834;32;20040;-87
2022/09/20 11:26:40;;;;;;;;;;;;;;;17.70;60.15;99811.72;4392358;32;20029;-87
2022/09/20 11:29:24;;;;;;;;;;;;;;;17.94;60.17;99801.47;4378397;32;19975;-87
2022/09/20 11:31:50;;;;;;;;;;;;;;;18.07;60.17;99799.81;4378450;32;20005;-87
2022/09/20 11:34:15;;;;;;;;;;;;;;;18.10;60.17;99799.59;4378087;32;20042;-87
2022/09/20 11:36:44;;;;;;;;;;;;;;;18.05;60.17;99793.78;4378457;32;20014;-87
2022/09/20 11:39:14;;;;;;;;;;;;;;;18.14;60.18;99791.50;4391811;32;20450;-86
2022/09/20 11:41:39;;;;;;;;;;;;;;;18.23;60.18;99791.78;4378056;32;20336;-87
2022/09/20 11:44:06;;;;;;;;;;;;;;;17.96;60.16;99793.50;4380104;32;21687;-86
2022/09/20 11:46:52;;;;;;;;;;;;;;;17.69;60.14;99788.13;4380900;32;19995;-86
2022/09/20 11:49:25;;;;;;;;;;;;;;;17.52;60.14;99791.75;4380864;32;19993;-86
2022/09/20 11:51:50;;;;;;;;;;;;;;;17.25;60.12;99786.31;4381397;32;20013;-85
2022/09/20 11:54:18;;;;;;;;;;;;;;;17.17;60.13;99783.31;4395050;32;20691;-85
2022/09/20 11:56:55;;;;;;;;;;;;;;;17.21;60.12;99789.22;4395578;32;19978;-87
2022/09/20 11:59:28;;;;;;;;;;;;;;;17.05;60.12;99777.00;4395185;32;19992;-86
2022/09/20 12:01:54;;;;;;;;;;;;;;;17.15;60.12;99777.28;4368093;32;19990;-85
2022/09/20 12:04:22;;;;;;;;;;;;;;;17.38;60.13;99778.56;4381208;32;20022;-87
2022/09/20 12:06:52;;;;;;;;;;;;;;;17.51;60.14;99774.28;4394744;32;19979;-87
2022/09/20 12:09:47;;;;;;;;;;;;;;;17.76;60.15;99769.25;4381407;32;19987;-86
2022/09/20 12:12:29;;;;;;;;;;;;;;;17.37;60.13;99777.72;4361094;32;19974;-86
2022/09/20 12:14:55;;;;;;;;;;;;;;;17.61;60.14;99770.13;4381624;32;19991;-87
2022/09/20 12:17:39;;;;;;;;;;;;;;;17.66;60.15;99767.22;4370475;32;20016;-87
2022/09/20 12:20:23;;;;;;;;;;;;;;;17.43;60.13;99769.44;4397811;32;19979;-85
2022/09/20 12:22:48;;;;;;;;;;;;;;;17.87;60.16;99763.31;4388118;32;20037;-84
2022/09/20 12:25:49;;;;;;;;;;;;;;;18.03;60.17;99760.59;4395691;32;19994;-86
2022/09/20 12:28:14;;;;;;;;;;;;;;;17.99;60.17;99753.81;4331718;33;20022;-88
2022/09/20 12:30:40;;;;;;;;;;;;;;;17.86;60.16;99758.13;4357092;32;20053;-86
2022/09/20 12:33:16;;;;;;;;;;;;;;;17.96;60.17;99762.72;4379715;32;20355;-86
2022/09/20 12:35:51;;;;;;;;;;;;;;;18.01;60.17;99763.31;4380011;32;19998;-87
2022/09/20 12:38:20;;;;;;;;;;;;;;;18.24;60.18;99764.50;4380099;32;20054;-86
2022/09/20 12:40:57;;;;;;;;;;;;;;;18.24;60.19;99758.38;4379875;32;19978;-86
2022/09/20 12:43:23;;;;;;;;;;;;;;;18.41;60.19;99760.78;4379899;32;19986;-87
2022/09/20 12:45:52;;;;;;;;;;;;;;;18.30;60.18;99763.25;4379892;32;20248;-87
2022/09/20 12:48:18;;;;;;;;;;;;;;;18.04;60.17;99764.91;4393911;32;19987;-88
2022/09/20 12:53:41;;;;;;;;;;;;;;;17.42;60.14;99767.75;4366099;32;19978;-87
2022/09/20 12:56:06;;;;;;;;;;;;;;;17.28;60.13;99778.28;4379702;32;20017;-88
2022/09/20 12:58:36;;;;;;;;;;;;;;;17.17;60.13;99780.69;4393672;32;19988;-87
2022/09/20 13:01:02;;;;;;;;;;;;;;;17.20;60.12;99775.22;4379748;32;20008;-87
2022/09/20 13:03:27;;;;;;;;;;;;;;;17.30;60.13;99786.94;4393589;32;19982;-88
2022/09/20 13:06:05;;;;;;;;;;;;;;;17.50;60.14;99757.59;4379699;32;20033;-87
2022/09/20 13:08:50;;;;;;;;;;;;;;;17.62;60.15;99766.56;4393428;32;20088;-89
2022/09/20 13:11:28;;;;;;;;;;;;;;;17.50;60.14;99759.41;4369164;32;19986;-86
2022/09/20 13:14:22;;;;;;;;;;;;;;;17.74;60.15;99763.22;4393648;32;20049;-84
2022/09/20 13:17:08;;;;;;;;;;;;;;;17.60;60.14;99762.34;4368841;32;19999;-85
2022/09/20 13:19:36;;;;;;;;;;;;;;;17.50;60.14;99760.25;4385004;32;19995;-84
2022/09/20 13:22:08;;;;;;;;;;;;;;;17.58;60.15;99765.06;4379825;32;19971;-86
2022/09/20 13:24:37;;;;;;;;;;;;;;;17.49;60.15;99769.06;4379830;32;20856;-88